createdAt,value
2019-02-17T00:00:53.992Z,95.70
2019-02-17T00:03:57.442Z,95.90
2019-02-17T00:07:00.409Z,96.00
2019-02-17T00:10:04.512Z,95.50
2019-02-17T00:13:07.557Z,95.80
2019-02-17T00:16:10.517Z,96.00
2019-02-17T00:19:13.848Z,96.50
2019-02-17T00:22:16.821Z,97.20
2019-02-17T00:25:20.514Z,97.60
2019-02-17T00:28:23.612Z,97.70
2019-02-17T00:31:26.949Z,97.00
2019-02-17T00:34:30.988Z,97.50
2019-02-17T00:37:34.043Z,97.30
2019-02-17T00:40:37.020Z,97.60
2019-02-17T00:43:39.960Z,98.80
2019-02-17T00:46:42.922Z,99.40
2019-02-17T00:49:46.273Z,99.90
2019-02-17T00:52:49.602Z,99.90
2019-02-17T00:55:53.283Z,99.30
2019-02-17T00:58:56.247Z,98.90
2019-02-17T01:01:59.991Z,98.80
2019-02-17T01:05:03.119Z,99.80
2019-02-17T01:08:06.380Z,99.90
2019-02-17T01:11:10.429Z,99.90
2019-02-17T01:14:13.932Z,99.90
2019-02-17T01:17:16.883Z,99.90
2019-02-17T01:20:19.824Z,99.90
2019-02-17T01:23:23.214Z,99.90
2019-02-17T01:26:26.528Z,99.90
2019-02-17T01:29:29.895Z,99.90
2019-02-17T01:32:33.218Z,99.50
2019-02-17T01:35:36.536Z,99.30
2019-02-17T01:38:39.873Z,99.50
2019-02-17T01:41:43.951Z,99.90
2019-02-17T01:44:46.967Z,99.90
2019-02-17T01:47:50.348Z,99.70
2019-02-17T01:50:53.692Z,99.90
2019-02-17T01:53:56.987Z,99.70
2019-02-17T01:57:00.321Z,99.90
2019-02-17T02:00:04.433Z,99.90
2019-02-17T02:03:09.668Z,99.10
2019-02-17T02:06:12.652Z,98.90
2019-02-17T02:09:15.600Z,99.40
2019-02-17T02:12:18.668Z,99.90
2019-02-17T02:15:21.630Z,99.90
2019-02-17T02:18:24.571Z,99.90
2019-02-17T02:21:27.576Z,98.90
2019-02-17T02:24:30.537Z,99.90
2019-02-17T02:27:33.820Z,99.90
2019-02-17T02:30:36.778Z,99.90
2019-02-17T02:33:39.729Z,99.90
2019-02-17T02:36:43.081Z,99.90
2019-02-17T02:39:46.020Z,99.90
2019-02-17T02:42:49.740Z,99.90
2019-02-17T02:45:53.110Z,99.90
2019-02-17T02:48:56.321Z,99.90
2019-02-17T02:51:59.665Z,99.90
2019-02-17T02:55:02.713Z,99.30
2019-02-17T02:58:05.766Z,98.80
2019-02-17T03:01:10.437Z,99.40
2019-02-17T03:04:13.719Z,99.30
2019-02-17T03:07:19.675Z,99.50
2019-02-17T03:10:22.608Z,99.60
2019-02-17T03:13:25.958Z,99.90
2019-02-17T03:16:29.190Z,99.90
2019-02-17T03:19:32.278Z,99.90
2019-02-17T03:22:35.251Z,99.70
2019-02-17T03:25:38.529Z,99.70
2019-02-17T03:28:42.219Z,99.90
2019-02-17T03:31:45.474Z,99.90
2019-02-17T03:34:48.456Z,99.90
2019-02-17T03:37:51.855Z,99.90
2019-02-17T03:40:54.796Z,99.90
2019-02-17T03:43:58.131Z,99.90
2019-02-17T03:47:01.393Z,99.90
2019-02-17T03:50:05.157Z,99.90
2019-02-17T03:53:08.088Z,99.90
2019-02-17T03:56:11.844Z,99.90
2019-02-17T03:59:15.911Z,99.50
2019-02-17T04:02:18.845Z,99.70
2019-02-17T04:05:21.801Z,99.90
2019-02-17T04:08:25.368Z,99.90
2019-02-17T04:11:28.667Z,99.90
2019-02-17T04:14:31.631Z,99.90
2019-02-17T04:17:34.596Z,99.90
2019-02-17T04:20:37.909Z,99.90
2019-02-17T04:23:40.843Z,99.90
2019-02-17T04:26:43.827Z,99.90
2019-02-17T04:29:46.760Z,99.90
2019-02-17T04:32:50.084Z,99.90
2019-02-17T04:35:53.633Z,99.90
2019-02-17T04:38:57.635Z,99.90
2019-02-17T04:42:00.597Z,99.90
2019-02-17T04:45:04.213Z,99.90
2019-02-17T04:48:09.124Z,99.90
2019-02-17T04:51:12.086Z,99.70
2019-02-17T04:54:15.361Z,99.90
2019-02-17T04:57:18.327Z,99.60
2019-02-17T05:00:21.289Z,99.90
2019-02-17T05:03:24.231Z,99.90
2019-02-17T05:06:27.193Z,99.90
2019-02-17T05:09:30.124Z,99.90
2019-02-17T05:12:33.080Z,99.90
2019-02-17T05:15:37.183Z,99.90
2019-02-17T05:18:40.137Z,99.90
2019-02-17T05:21:43.497Z,99.90
2019-02-17T05:24:46.831Z,99.90
2019-02-17T05:27:49.791Z,99.90
2019-02-17T05:30:53.544Z,99.90
2019-02-17T05:33:57.350Z,99.90
2019-02-17T05:37:00.314Z,99.90
2019-02-17T05:40:03.739Z,99.90
2019-02-17T05:43:07.117Z,99.90
2019-02-17T05:46:10.079Z,99.90
2019-02-17T05:49:13.039Z,99.90
2019-02-17T05:52:16.371Z,99.90
2019-02-17T05:55:19.306Z,99.90
2019-02-17T05:58:22.356Z,99.90
2019-02-17T06:01:25.670Z,99.90
2019-02-17T06:04:29.017Z,99.90
2019-02-17T06:07:32.645Z,99.90
2019-02-17T06:10:35.680Z,99.90
2019-02-17T06:13:38.639Z,99.90
2019-02-17T06:16:41.602Z,99.90
2019-02-17T06:19:44.573Z,99.90
2019-02-17T06:22:48.237Z,99.90
2019-02-17T06:25:51.509Z,99.90
2019-02-17T06:28:54.882Z,99.90
2019-02-17T06:31:57.809Z,99.90
2019-02-17T06:35:01.165Z,99.90
2019-02-17T06:38:04.428Z,99.90
2019-02-17T06:41:07.372Z,99.90
2019-02-17T06:44:10.338Z,99.90
2019-02-17T06:47:20.496Z,99.90
2019-02-17T06:50:23.445Z,99.90
2019-02-17T06:53:27.153Z,99.90
2019-02-17T06:56:44.274Z,99.90
2019-02-17T06:59:48.333Z,99.90
2019-02-17T07:02:51.674Z,99.90
2019-02-17T07:06:14.566Z,99.90
2019-02-17T07:09:17.852Z,99.90
2019-02-17T07:12:20.795Z,99.90
2019-02-17T07:15:23.744Z,99.90
2019-02-17T07:18:27.607Z,99.90
2019-02-17T07:21:31.245Z,99.90
2019-02-17T07:24:34.563Z,99.90
2019-02-17T07:27:37.527Z,99.90
2019-02-17T07:30:40.492Z,99.90
2019-02-17T07:33:43.428Z,99.90
2019-02-17T07:36:46.725Z,99.90
2019-02-17T07:39:50.105Z,99.90
2019-02-17T07:42:53.405Z,99.90
2019-02-17T07:45:57.123Z,99.90
2019-02-17T07:49:00.089Z,99.90
2019-02-17T07:52:03.049Z,99.90
2019-02-17T07:55:07.507Z,99.90
2019-02-17T07:58:10.784Z,99.90
2019-02-17T08:01:13.740Z,99.90
2019-02-17T08:04:16.676Z,99.90
2019-02-17T08:07:19.939Z,99.90
2019-02-17T08:10:23.293Z,99.90
2019-02-17T08:13:26.249Z,99.90
2019-02-17T08:16:29.229Z,99.90
2019-02-17T08:19:33.021Z,99.90
2019-02-17T08:22:35.991Z,99.90
2019-02-17T08:25:38.934Z,99.90
2019-02-17T08:28:42.655Z,99.90
2019-02-17T08:31:55.505Z,99.90
2019-02-17T08:34:53.267Z,99.90
2019-02-17T08:37:56.704Z,99.20
2019-02-17T08:41:00.839Z,98.60
2019-02-17T08:44:03.948Z,99.20
2019-02-17T08:47:07.240Z,97.10
2019-02-17T08:50:10.565Z,95.90
2019-02-17T08:53:13.878Z,95.90
2019-02-17T08:56:18.650Z,96.00
2019-02-17T08:59:22.789Z,95.00
2019-02-17T09:02:26.518Z,94.50
2019-02-17T09:05:29.481Z,93.90
2019-02-17T09:08:32.816Z,93.60
2019-02-17T09:11:35.756Z,93.20
2019-02-17T09:14:39.412Z,93.50
2019-02-17T09:17:42.368Z,94.10
2019-02-17T09:20:45.709Z,92.80
2019-02-17T09:26:52.480Z,91.40
2019-02-17T09:29:55.469Z,93.00
2019-02-17T09:32:58.676Z,92.70
2019-02-17T09:36:02.019Z,91.60
2019-02-17T09:39:08.453Z,89.90
2019-02-17T09:42:11.406Z,89.20
2019-02-17T09:45:15.892Z,89.60
2019-02-17T09:48:18.825Z,90.50
2019-02-17T09:51:22.906Z,90.00
2019-02-17T09:54:26.665Z,92.40
2019-02-17T09:57:29.644Z,89.30
2019-02-17T10:00:32.597Z,90.80
2019-02-17T10:03:35.542Z,90.10
2019-02-17T10:06:38.891Z,85.20
2019-02-17T10:09:42.109Z,83.20
2019-02-17T10:12:45.915Z,83.20
2019-02-17T10:15:48.861Z,81.20
2019-02-17T10:18:52.809Z,81.40
2019-02-17T10:21:56.208Z,81.50
2019-02-17T10:24:59.495Z,78.50
2019-02-17T10:28:02.448Z,79.10
2019-02-17T10:31:06.211Z,82.10
2019-02-17T10:34:09.158Z,79.00
2019-02-17T10:37:13.226Z,75.70
2019-02-17T10:40:16.323Z,76.20
2019-02-17T10:43:20.035Z,77.90
2019-02-17T10:46:23.369Z,74.00
2019-02-17T10:49:27.099Z,76.10
2019-02-17T10:52:33.516Z,79.00
2019-02-17T11:01:39.376Z,74.50
2019-02-17T11:04:43.229Z,72.60
2019-02-17T11:07:46.467Z,68.60
2019-02-17T11:10:50.175Z,69.20
2019-02-17T11:13:53.833Z,69.20
2019-02-17T11:16:57.189Z,67.50
2019-02-17T11:20:00.899Z,65.80
2019-02-17T11:23:04.326Z,69.80
2019-02-17T11:26:07.373Z,66.20
2019-02-17T11:29:10.344Z,67.40
2019-02-17T11:32:13.643Z,64.20
2019-02-17T11:35:16.921Z,63.80
2019-02-17T11:38:21.093Z,60.60
2019-02-17T11:41:24.054Z,65.20
2019-02-17T11:44:27.838Z,80.30
2019-02-17T11:47:31.468Z,78.00
2019-02-17T11:50:34.444Z,54.70
2019-02-17T11:53:37.447Z,71.30
2019-02-17T11:56:42.382Z,63.00
2019-02-17T11:59:45.809Z,63.50
2019-02-17T12:02:48.771Z,60.70
2019-02-17T12:05:51.762Z,57.00
2019-02-17T12:08:54.724Z,58.70
2019-02-17T12:11:57.673Z,59.20
2019-02-17T12:15:00.644Z,59.20
2019-02-17T12:18:03.946Z,58.90
2019-02-17T12:21:12.869Z,58.50
2019-02-17T12:24:22.282Z,59.60
2019-02-17T12:27:33.114Z,61.00
2019-02-17T12:30:37.120Z,50.40
2019-02-17T12:33:40.073Z,47.50
2019-02-17T12:36:44.804Z,51.30
2019-02-17T12:39:47.768Z,48.70
2019-02-17T12:42:51.237Z,48.20
2019-02-17T12:45:55.384Z,47.50
2019-02-17T12:48:58.356Z,47.80
2019-02-17T12:52:02.094Z,47.40
2019-02-17T12:55:05.482Z,45.90
2019-02-17T12:58:08.880Z,44.70
2019-02-17T13:01:13.549Z,45.40
2019-02-17T13:04:16.588Z,44.50
2019-02-17T13:07:19.931Z,43.60
2019-02-17T13:10:22.874Z,44.70
2019-02-17T13:13:25.833Z,45.80
2019-02-17T13:16:29.468Z,47.80
2019-02-17T13:19:33.174Z,50.20
2019-02-17T13:22:36.977Z,45.20
2019-02-17T13:25:39.955Z,44.50
2019-02-17T13:28:42.962Z,46.40
2019-02-17T13:31:46.252Z,45.70
2019-02-17T13:34:49.245Z,44.20
2019-02-17T13:37:52.591Z,42.90
2019-02-17T13:40:55.537Z,45.20
2019-02-17T13:43:58.493Z,43.80
2019-02-17T13:47:02.120Z,42.60
2019-02-17T13:50:06.957Z,42.00
2019-02-17T13:53:11.935Z,42.50
2019-02-17T13:56:15.605Z,43.50
2019-02-17T13:59:18.571Z,43.50
2019-02-17T14:02:23.018Z,43.80
2019-02-17T14:05:25.988Z,43.70
2019-02-17T14:08:31.264Z,44.70
2019-02-17T14:11:33.890Z,45.60
2019-02-17T14:14:38.789Z,45.80
2019-02-17T14:17:41.995Z,45.10
2019-02-17T14:20:45.372Z,46.20
2019-02-17T14:23:48.640Z,45.20
2019-02-17T14:26:51.912Z,49.80
2019-02-17T14:29:54.885Z,45.60
2019-02-17T14:32:57.837Z,46.20
2019-02-17T14:36:01.066Z,46.40
2019-02-17T14:39:05.968Z,46.20
2019-02-17T14:42:10.870Z,46.70
2019-02-17T14:45:14.071Z,49.20
2019-02-17T14:48:17.464Z,47.80
2019-02-17T14:51:20.431Z,45.80
2019-02-17T14:54:23.728Z,47.80
2019-02-17T14:57:26.719Z,47.30
2019-02-17T15:00:29.684Z,46.50
2019-02-17T15:06:42.271Z,47.40
2019-02-17T15:09:45.240Z,46.90
2019-02-17T15:12:48.228Z,48.00
2019-02-17T15:15:51.193Z,47.60
2019-02-17T15:18:54.941Z,48.20
2019-02-17T15:21:57.935Z,48.50
2019-02-17T15:25:01.443Z,47.90
2019-02-17T15:28:04.818Z,47.20
2019-02-17T15:31:07.820Z,47.80
2019-02-17T15:34:18.386Z,49.80
2019-02-17T15:37:15.664Z,51.10
2019-02-17T15:40:19.614Z,54.20
2019-02-17T15:43:22.587Z,57.00
2019-02-17T15:46:25.527Z,54.40
2019-02-17T15:49:28.870Z,57.60
2019-02-17T15:52:31.845Z,59.90
2019-02-17T15:55:36.158Z,61.60
2019-02-17T15:58:39.502Z,63.20
2019-02-17T16:01:42.441Z,65.90
2019-02-17T16:04:46.105Z,68.00
2019-02-17T16:07:49.433Z,70.30
2019-02-17T16:10:52.688Z,72.80
2019-02-17T16:13:55.976Z,75.60
2019-02-17T16:16:59.699Z,77.30
2019-02-17T16:20:02.926Z,79.10
2019-02-17T16:23:05.876Z,78.60
2019-02-17T16:26:09.220Z,80.10
2019-02-17T16:29:12.224Z,80.40
2019-02-17T16:32:15.953Z,79.90
2019-02-17T16:35:19.248Z,81.00
2019-02-17T16:38:22.631Z,82.60
2019-02-17T16:41:26.186Z,82.30
2019-02-17T16:44:29.593Z,83.50
2019-02-17T16:47:32.613Z,83.30
2019-02-17T16:50:35.579Z,83.30
2019-02-17T16:53:40.157Z,83.70
2019-02-17T16:56:43.106Z,83.20
2019-02-17T16:59:46.073Z,83.50
2019-02-17T17:02:49.116Z,83.40
2019-02-17T17:05:52.845Z,81.70
2019-02-17T17:08:56.353Z,83.80
2019-02-17T17:12:00.084Z,82.90
2019-02-17T17:15:03.281Z,83.80
2019-02-17T17:18:07.800Z,83.20
2019-02-17T17:21:10.752Z,82.70
2019-02-17T17:24:14.031Z,82.60
2019-02-17T17:27:17.538Z,83.70
2019-02-17T17:30:20.522Z,83.80
2019-02-17T17:33:23.460Z,81.50
2019-02-17T17:36:27.074Z,80.00
2019-02-17T17:39:30.911Z,79.10
2019-02-17T17:42:34.299Z,81.10
2019-02-17T17:45:37.943Z,75.60
2019-02-17T17:48:42.400Z,78.10
2019-02-17T17:51:46.142Z,77.60
2019-02-17T17:54:50.174Z,79.00
2019-02-17T17:57:53.924Z,74.60
2019-02-17T18:00:57.990Z,75.10
2019-02-17T18:04:01.600Z,67.90
2019-02-17T18:07:04.556Z,68.90
2019-02-17T18:10:10.713Z,67.90
2019-02-17T18:13:14.684Z,66.20
2019-02-17T18:16:17.971Z,64.60
2019-02-17T18:19:21.037Z,64.30
2019-02-17T18:22:23.983Z,62.50
2019-02-17T18:25:26.941Z,62.80
2019-02-17T18:28:30.287Z,62.40
2019-02-17T18:31:33.384Z,61.70
2019-02-17T18:34:36.347Z,61.90
2019-02-17T18:37:39.696Z,61.50
2019-02-17T18:40:44.920Z,62.40
2019-02-17T18:43:48.336Z,62.30
2019-02-17T18:46:51.301Z,63.30
2019-02-17T18:49:54.262Z,61.60
2019-02-17T18:52:58.016Z,62.30
2019-02-17T18:56:01.401Z,62.00
2019-02-17T18:59:04.445Z,61.10
2019-02-17T19:02:07.512Z,63.80
2019-02-17T19:05:10.679Z,62.90
2019-02-17T19:08:13.643Z,62.40
2019-02-17T19:11:17.382Z,63.70
2019-02-17T19:14:20.680Z,61.30
2019-02-17T19:17:23.966Z,61.50
2019-02-17T19:20:26.973Z,63.30
2019-02-17T19:23:30.238Z,62.60
2019-02-17T19:26:33.600Z,65.80
2019-02-17T19:29:37.102Z,65.90
2019-02-17T19:32:40.130Z,63.80
2019-02-17T19:35:43.094Z,63.20
2019-02-17T19:38:46.326Z,62.20
2019-02-17T19:41:50.319Z,62.40
2019-02-17T19:44:53.268Z,61.40
2019-02-17T19:47:56.229Z,61.70
2019-02-17T19:50:59.190Z,64.40
2019-02-17T19:54:02.143Z,65.30
2019-02-17T19:57:05.477Z,63.40
2019-02-17T20:00:11.024Z,62.60
2019-02-17T20:03:32.864Z,63.90
2019-02-17T20:06:36.575Z,59.90
2019-02-17T20:09:39.930Z,60.50
2019-02-17T20:12:43.329Z,60.70
2019-02-17T20:15:46.273Z,60.90
2019-02-17T20:18:49.246Z,60.90
2019-02-17T20:21:52.204Z,59.70
2019-02-17T20:24:55.276Z,59.90
2019-02-17T20:27:58.239Z,60.30
2019-02-17T20:31:01.289Z,58.60
2019-02-17T20:34:04.599Z,59.60
2019-02-17T20:37:07.607Z,61.10
2019-02-17T20:40:10.599Z,59.50
2019-02-17T20:43:13.565Z,58.70
2019-02-17T20:46:16.525Z,59.90
2019-02-17T20:49:19.881Z,58.70
2019-02-17T20:52:22.850Z,60.20
2019-02-17T20:55:26.140Z,60.70
2019-02-17T20:58:29.116Z,60.10
2019-02-17T21:01:32.445Z,59.10
2019-02-17T21:04:35.544Z,57.40
2019-02-17T21:07:38.931Z,58.50
2019-02-17T21:10:41.876Z,57.70
2019-02-17T21:13:45.170Z,57.60
2019-02-17T21:16:48.144Z,57.60
2019-02-17T21:19:52.581Z,57.40
2019-02-17T21:22:56.791Z,58.00
2019-02-17T21:25:59.723Z,57.10
2019-02-17T21:29:03.614Z,57.10
2019-02-17T21:32:06.662Z,56.00
2019-02-17T21:35:11.136Z,55.90
2019-02-17T21:38:14.469Z,56.00
2019-02-17T21:41:17.831Z,56.50
2019-02-17T21:44:21.475Z,57.60
2019-02-17T21:47:24.456Z,58.50
2019-02-17T21:50:27.514Z,60.70
2019-02-17T21:53:30.453Z,60.60
2019-02-17T21:56:34.092Z,58.00
2019-02-17T21:59:37.360Z,59.40
2019-02-17T22:02:41.128Z,61.40
2019-02-17T22:05:44.997Z,59.60
2019-02-17T22:08:47.964Z,61.10
2019-02-17T22:11:51.480Z,62.70
2019-02-17T22:14:55.523Z,62.50
2019-02-17T22:17:59.008Z,62.10
2019-02-17T22:21:02.306Z,62.10
2019-02-17T22:24:05.904Z,61.10
2019-02-17T22:27:08.998Z,59.90
2019-02-17T22:30:12.110Z,62.20
2019-02-17T22:33:15.173Z,63.30
2019-02-17T22:36:18.247Z,62.50
2019-02-17T22:39:21.669Z,63.40
2019-02-17T22:42:25.177Z,64.90
2019-02-17T22:45:29.387Z,65.10
2019-02-17T22:48:32.667Z,65.00
2019-02-17T22:51:35.980Z,63.90
2019-02-17T22:54:39.034Z,64.30
2019-02-17T22:57:42.457Z,65.90
2019-02-17T23:01:00.715Z,66.30
2019-02-17T23:04:06.047Z,67.10
2019-02-17T23:07:09.191Z,68.90
2019-02-17T23:10:12.435Z,68.60
2019-02-17T23:13:15.497Z,70.80
2019-02-17T23:16:18.532Z,70.20
2019-02-17T23:19:21.495Z,71.00
2019-02-17T23:22:24.833Z,70.80
2019-02-17T23:25:28.138Z,70.60
2019-02-17T23:28:31.504Z,71.70
2019-02-17T23:31:34.555Z,72.30
2019-02-17T23:34:37.513Z,71.30
2019-02-17T23:37:40.790Z,72.30
2019-02-17T23:40:43.749Z,72.50
2019-02-17T23:43:46.723Z,72.60
2019-02-17T23:46:50.389Z,73.30
2019-02-17T23:49:53.666Z,73.40
2019-02-17T23:52:56.621Z,72.70
2019-02-17T23:55:59.955Z,73.50
2019-02-17T23:59:03.211Z,73.60
